createdAt,value
2017-07-17T00:00:49.953Z,1035.06
2017-07-17T00:01:49.951Z,1035.05
2017-07-17T00:02:49.946Z,1034.99
2017-07-17T00:03:49.947Z,1035
2017-07-17T00:04:49.941Z,1035.01
2017-07-17T00:05:49.940Z,1034.98
2017-07-17T00:06:49.937Z,1034.94
2017-07-17T00:07:49.934Z,1035
2017-07-17T00:08:49.937Z,1034.94
2017-07-17T00:09:49.929Z,1034.96
2017-07-17T00:10:50.223Z,1034.96
2017-07-17T00:11:49.921Z,1034.98
2017-07-17T00:12:49.919Z,1034.99
2017-07-17T00:13:49.919Z,1034.99
2017-07-17T00:14:49.917Z,1035
2017-07-17T00:15:49.909Z,1034.96
2017-07-17T00:16:49.910Z,1035
2017-07-17T00:17:49.908Z,1034.96
2017-07-17T00:18:49.903Z,1034.97
2017-07-17T00:19:49.898Z,1034.98
2017-07-17T00:20:49.900Z,1034.99
2017-07-17T00:21:49.892Z,1034.97
2017-07-17T00:22:49.893Z,1034.95
2017-07-17T00:23:49.888Z,1034.98
2017-07-17T00:24:49.885Z,1034.95
2017-07-17T00:25:49.886Z,1034.95
2017-07-17T00:26:49.882Z,1034.96
2017-07-17T00:27:49.875Z,1034.94
2017-07-17T00:28:49.871Z,1034.94
2017-07-17T00:29:49.871Z,1035
2017-07-17T00:30:49.870Z,1034.99
2017-07-17T00:31:49.865Z,1034.96
2017-07-17T00:32:49.861Z,1034.98
2017-07-17T00:33:49.861Z,1034.92
2017-07-17T00:34:49.857Z,1034.92
2017-07-17T00:35:49.854Z,1034.89
2017-07-17T00:36:49.855Z,1034.88
2017-07-17T00:37:49.846Z,1034.84
2017-07-17T00:38:49.847Z,1034.84
2017-07-17T00:39:49.839Z,1034.81
2017-07-17T00:40:49.838Z,1034.82
2017-07-17T00:41:49.834Z,1034.85
2017-07-17T00:42:49.835Z,1034.85
2017-07-17T00:43:49.831Z,1034.9
2017-07-17T00:44:49.830Z,1034.88
2017-07-17T00:45:49.825Z,1034.88
2017-07-17T00:46:49.821Z,1034.89
2017-07-17T00:47:49.818Z,1034.87
2017-07-17T00:48:49.817Z,1034.89
2017-07-17T00:49:49.812Z,1034.9
2017-07-17T00:50:49.809Z,1034.83
2017-07-17T00:51:49.806Z,1034.79
2017-07-17T00:52:49.803Z,1034.79
2017-07-17T00:53:49.800Z,1034.79
2017-07-17T00:54:49.797Z,1034.78
2017-07-17T00:55:49.824Z,1034.81
2017-07-17T00:56:49.792Z,1034.84
2017-07-17T00:57:49.785Z,1034.79
2017-07-17T00:58:49.787Z,1034.79
2017-07-17T00:59:49.781Z,1034.79
2017-07-17T01:00:49.781Z,1034.78
2017-07-17T01:01:49.772Z,1034.77
2017-07-17T01:02:49.772Z,1034.77
2017-07-17T01:03:49.772Z,1034.74
2017-07-17T01:04:49.769Z,1034.75
2017-07-17T01:05:49.763Z,1034.78
2017-07-17T01:06:49.756Z,1034.75
2017-07-17T01:07:49.758Z,1034.76
2017-07-17T01:08:49.751Z,1034.7
2017-07-17T01:09:49.751Z,1034.73
2017-07-17T01:10:49.748Z,1034.74
2017-07-17T01:11:49.747Z,1034.71
2017-07-17T01:12:49.738Z,1034.7
2017-07-17T01:13:49.738Z,1034.69
2017-07-17T01:14:49.732Z,1034.69
2017-07-17T01:15:49.733Z,1034.69
2017-07-17T01:16:49.729Z,1034.73
2017-07-17T01:17:49.730Z,1034.73
2017-07-17T01:18:49.723Z,1034.76
2017-07-17T01:19:49.721Z,1034.71
2017-07-17T01:20:49.719Z,1034.7
2017-07-17T01:21:49.715Z,1034.7
2017-07-17T01:22:49.709Z,1034.69
2017-07-17T01:23:49.709Z,1034.69
2017-07-17T01:24:49.701Z,1034.68
2017-07-17T01:25:49.702Z,1034.69
2017-07-17T01:26:49.699Z,1034.68
2017-07-17T01:27:49.697Z,1034.66
2017-07-17T01:28:49.691Z,1034.64
2017-07-17T01:29:49.689Z,1034.67
2017-07-17T01:30:49.687Z,1034.64
2017-07-17T01:31:49.685Z,1034.64
2017-07-17T01:32:49.683Z,1034.67
2017-07-17T01:33:49.676Z,1034.66
2017-07-17T01:34:49.670Z,1034.64
2017-07-17T01:35:49.669Z,1034.64
2017-07-17T01:36:49.925Z,1034.62
2017-07-17T01:37:49.666Z,1034.61
2017-07-17T01:38:49.658Z,1034.59
2017-07-17T01:39:49.658Z,1034.61
2017-07-17T01:40:49.658Z,1034.58
2017-07-17T01:41:49.900Z,1034.59
2017-07-17T01:42:49.648Z,1034.6
2017-07-17T01:43:49.646Z,1034.6
2017-07-17T01:44:49.644Z,1034.59
2017-07-17T01:45:49.638Z,1034.55
2017-07-17T01:46:49.888Z,1034.52
2017-07-17T01:47:49.636Z,1034.52
2017-07-17T01:48:49.634Z,1034.48
2017-07-17T01:49:49.624Z,1034.49
2017-07-17T01:50:49.623Z,1034.47
2017-07-17T01:51:49.872Z,1034.42
2017-07-17T01:52:49.620Z,1034.42
2017-07-17T01:53:49.619Z,1034.37
2017-07-17T01:54:49.611Z,1034.41
2017-07-17T01:55:49.609Z,1034.41
2017-07-17T01:56:49.906Z,1034.35
2017-07-17T01:57:49.603Z,1034.35
2017-07-17T01:58:49.599Z,1034.33
2017-07-17T01:59:49.599Z,1034.27
2017-07-17T02:00:49.595Z,1034.3
2017-07-17T02:01:49.896Z,1034.3
2017-07-17T02:02:49.590Z,1034.3
2017-07-17T02:03:49.584Z,1034.28
2017-07-17T02:04:49.580Z,1034.32
2017-07-17T02:05:49.579Z,1034.31
2017-07-17T02:06:49.878Z,1034.3
2017-07-17T02:07:49.576Z,1034.28
2017-07-17T02:08:49.574Z,1034.28
2017-07-17T02:09:49.571Z,1034.27
2017-07-17T02:10:49.561Z,1034.29
2017-07-17T02:11:49.812Z,1034.29
2017-07-17T02:12:49.558Z,1034.3
2017-07-17T02:13:49.557Z,1034.28
2017-07-17T02:14:49.553Z,1034.32
2017-07-17T02:15:49.551Z,1034.31
2017-07-17T02:16:49.795Z,1034.32
2017-07-17T02:17:49.547Z,1034.31
2017-07-17T02:18:49.538Z,1034.29
2017-07-17T02:19:49.536Z,1034.3
2017-07-17T02:20:49.533Z,1034.3
2017-07-17T02:21:49.834Z,1034.3
2017-07-17T02:22:49.529Z,1034.29
2017-07-17T02:23:49.526Z,1034.27
2017-07-17T02:24:49.521Z,1034.28
2017-07-17T02:25:49.518Z,1034.3
2017-07-17T02:26:49.771Z,1034.31
2017-07-17T02:27:49.515Z,1034.32
2017-07-17T02:28:49.517Z,1034.32
2017-07-17T02:29:49.507Z,1034.29
2017-07-17T02:30:49.505Z,1034.28
2017-07-17T02:31:49.752Z,1034.31
2017-07-17T02:32:49.498Z,1034.3
2017-07-17T02:33:49.496Z,1034.33
2017-07-17T02:34:49.492Z,1034.32
2017-07-17T02:35:49.491Z,1034.35
2017-07-17T02:36:49.839Z,1034.31
2017-07-17T02:37:49.486Z,1034.33
2017-07-17T02:38:49.512Z,1034.35
2017-07-17T02:39:49.477Z,1034.35
2017-07-17T02:40:49.473Z,1034.3
2017-07-17T02:41:49.721Z,1034.31
2017-07-17T02:42:49.474Z,1034.33
2017-07-17T02:43:49.469Z,1034.31
2017-07-17T02:44:49.464Z,1034.28
2017-07-17T02:45:49.463Z,1034.29
2017-07-17T02:46:49.712Z,1034.32
2017-07-17T02:47:49.457Z,1034.31
2017-07-17T02:48:49.458Z,1034.37
2017-07-17T02:49:49.450Z,1034.37
2017-07-17T02:50:49.449Z,1034.39
2017-07-17T02:51:49.745Z,1034.37
2017-07-17T02:52:49.440Z,1034.39
2017-07-17T02:53:49.437Z,1034.39
2017-07-17T02:54:49.436Z,1034.4
2017-07-17T02:55:49.435Z,1034.44
2017-07-17T02:56:49.682Z,1034.46
2017-07-17T02:57:49.424Z,1034.45
2017-07-17T02:58:49.427Z,1034.44
2017-07-17T02:59:49.417Z,1034.42
2017-07-17T03:00:49.419Z,1034.4
2017-07-17T03:01:49.661Z,1034.41
2017-07-17T03:02:49.412Z,1034.4
2017-07-17T03:03:49.409Z,1034.42
2017-07-17T03:04:49.408Z,1034.41
2017-07-17T03:05:49.401Z,1034.43
2017-07-17T03:06:49.700Z,1034.41
2017-07-17T03:07:49.397Z,1034.44
2017-07-17T03:08:49.392Z,1034.44
2017-07-17T03:09:49.388Z,1034.47
2017-07-17T03:10:49.384Z,1034.5
2017-07-17T03:11:49.636Z,1034.53
2017-07-17T03:12:49.383Z,1034.57
2017-07-17T03:13:49.383Z,1034.58
2017-07-17T03:14:49.375Z,1034.6
2017-07-17T03:15:49.373Z,1034.59
2017-07-17T03:16:49.718Z,1034.58
2017-07-17T03:17:49.366Z,1034.55
2017-07-17T03:18:49.363Z,1034.5
2017-07-17T03:19:49.361Z,1034.53
2017-07-17T03:20:49.355Z,1034.53
2017-07-17T03:21:49.607Z,1034.51
2017-07-17T03:22:49.351Z,1034.48
2017-07-17T03:23:49.348Z,1034.46
2017-07-17T03:24:49.345Z,1034.45
2017-07-17T03:25:49.342Z,1034.45
2017-07-17T03:26:49.588Z,1034.41
2017-07-17T03:27:49.338Z,1034.45
2017-07-17T03:28:49.336Z,1034.44
2017-07-17T03:29:49.333Z,1034.41
2017-07-17T03:30:49.327Z,1034.44
2017-07-17T03:31:49.576Z,1034.41
2017-07-17T03:32:49.322Z,1034.46
2017-07-17T03:33:49.321Z,1034.43
2017-07-17T03:34:49.318Z,1034.46
2017-07-17T03:35:49.315Z,1034.47
2017-07-17T03:36:49.609Z,1034.48
2017-07-17T03:37:49.308Z,1034.5
2017-07-17T03:38:49.303Z,1034.5
2017-07-17T03:39:49.303Z,1034.48
2017-07-17T03:40:49.298Z,1034.44
2017-07-17T03:41:49.548Z,1034.52
2017-07-17T03:42:49.293Z,1034.52
2017-07-17T03:43:49.288Z,1034.57
2017-07-17T03:44:49.287Z,1034.63
2017-07-17T03:45:49.285Z,1034.63
2017-07-17T03:46:49.535Z,1034.66
2017-07-17T03:47:49.280Z,1034.65
2017-07-17T03:48:49.274Z,1034.74
2017-07-17T03:49:49.277Z,1034.7
2017-07-17T03:50:49.269Z,1034.73
2017-07-17T03:51:49.619Z,1034.72
2017-07-17T03:52:49.264Z,1034.8
2017-07-17T03:53:49.260Z,1034.78
2017-07-17T03:54:49.259Z,1034.77
2017-07-17T03:55:49.257Z,1034.82
2017-07-17T03:56:49.501Z,1034.78
2017-07-17T03:57:49.250Z,1034.79
2017-07-17T03:58:49.247Z,1034.82
2017-07-17T03:59:49.243Z,1034.83
2017-07-17T04:00:49.237Z,1034.79
2017-07-17T04:01:49.539Z,1034.76
2017-07-17T04:02:49.239Z,1034.77
2017-07-17T04:03:49.230Z,1034.77
2017-07-17T04:04:49.227Z,1034.72
2017-07-17T04:05:49.222Z,1034.67
2017-07-17T04:06:49.525Z,1034.67
2017-07-17T04:07:49.221Z,1034.66
2017-07-17T04:08:49.219Z,1034.63
2017-07-17T04:09:49.211Z,1034.66
2017-07-17T04:10:49.210Z,1034.66
2017-07-17T04:11:49.458Z,1034.63
2017-07-17T04:12:49.206Z,1034.55
2017-07-17T04:13:49.201Z,1034.56
2017-07-17T04:14:49.205Z,1034.56
2017-07-17T04:15:49.196Z,1034.58
2017-07-17T04:16:49.444Z,1034.57
2017-07-17T04:17:49.189Z,1034.61
2017-07-17T04:18:49.187Z,1034.64
2017-07-17T04:19:49.185Z,1034.71
2017-07-17T04:20:49.181Z,1034.68
2017-07-17T04:21:49.427Z,1034.7
2017-07-17T04:22:49.176Z,1034.67
2017-07-17T04:23:49.174Z,1034.63
2017-07-17T04:24:49.174Z,1034.68
2017-07-17T04:25:49.166Z,1034.73
2017-07-17T04:26:49.467Z,1034.65
2017-07-17T04:27:49.166Z,1034.15
2017-07-17T04:28:49.162Z,1033.72
2017-07-17T04:29:49.157Z,1033.19
2017-07-17T04:30:49.152Z,1033.22
2017-07-17T04:31:49.455Z,1032.94
2017-07-17T04:32:49.151Z,1032.69
2017-07-17T04:33:49.148Z,1032.47
2017-07-17T04:34:49.145Z,1032.22
2017-07-17T04:35:49.149Z,1032.02
2017-07-17T04:36:49.393Z,1031.8
2017-07-17T04:37:49.144Z,1031.62
2017-07-17T04:38:49.139Z,1031.42
2017-07-17T04:39:49.144Z,1031.29
2017-07-17T04:40:49.144Z,1031.16
2017-07-17T04:41:49.389Z,1031.02
2017-07-17T04:42:49.146Z,1030.93
2017-07-17T04:43:49.147Z,1030.9
2017-07-17T04:44:49.145Z,1030.79
2017-07-17T04:45:49.144Z,1030.87
2017-07-17T04:46:49.407Z,1030.88
2017-07-17T04:47:49.153Z,1030.63
2017-07-17T04:48:49.154Z,1030.61
2017-07-17T04:49:49.157Z,1030.79
2017-07-17T04:50:49.160Z,1031.03
2017-07-17T04:51:49.414Z,1030.86
2017-07-17T04:52:49.167Z,1030.76
2017-07-17T04:53:49.166Z,1031.07
2017-07-17T04:54:49.176Z,1031.25
2017-07-17T04:55:49.174Z,1031.56
2017-07-17T04:56:49.534Z,1031.8
2017-07-17T04:57:49.183Z,1032
2017-07-17T04:58:49.190Z,1032.19
2017-07-17T04:59:49.193Z,1032.51
2017-07-17T05:00:49.194Z,1032.08
2017-07-17T05:01:49.497Z,1031.91
2017-07-17T05:02:49.204Z,1031.67
2017-07-17T05:03:49.210Z,1031.25
2017-07-17T05:04:49.218Z,1030.88
2017-07-17T05:05:49.216Z,1030.48
2017-07-17T05:06:49.470Z,1030.15
2017-07-17T05:07:49.220Z,1029.93
2017-07-17T05:08:49.227Z,1029.72
2017-07-17T05:09:49.230Z,1029.57
2017-07-17T05:10:49.238Z,1029.4
2017-07-17T05:11:49.492Z,1029.28
2017-07-17T05:12:49.279Z,1029.2
2017-07-17T05:13:49.255Z,1029.08
2017-07-17T05:14:49.264Z,1028.99
2017-07-17T05:15:49.267Z,1028.86
2017-07-17T05:16:49.587Z,1028.86
2017-07-17T05:17:49.278Z,1028.73
2017-07-17T05:18:49.283Z,1028.7
2017-07-17T05:19:49.292Z,1028.8
2017-07-17T05:20:49.305Z,1028.82
2017-07-17T05:21:49.559Z,1028.75
2017-07-17T05:22:49.314Z,1028.97
2017-07-17T05:23:49.325Z,1028.92
2017-07-17T05:24:49.375Z,1028.82
2017-07-17T05:25:49.342Z,1028.88
2017-07-17T05:26:49.649Z,1028.81
2017-07-17T05:27:49.362Z,1028.8
2017-07-17T05:28:49.362Z,1028.68
2017-07-17T05:29:49.377Z,1028.22
2017-07-17T05:30:49.383Z,1028.92
2017-07-17T05:31:49.648Z,1028.66
2017-07-17T05:32:49.404Z,1028.3
2017-07-17T05:33:49.414Z,1028.54
2017-07-17T05:34:49.420Z,1029.3
2017-07-17T05:35:49.434Z,1029.25
2017-07-17T05:36:49.691Z,1028.9
2017-07-17T05:37:49.451Z,1028.99
2017-07-17T05:38:49.463Z,1028.27
2017-07-17T05:39:49.474Z,1029.05
2017-07-17T05:40:49.480Z,1028.57
2017-07-17T05:41:49.743Z,1028.63
2017-07-17T05:42:49.499Z,1028.6
2017-07-17T05:43:49.513Z,1028.89
2017-07-17T05:44:49.523Z,1029.87
2017-07-17T05:45:49.535Z,1029.55
2017-07-17T05:46:49.889Z,1029.03
2017-07-17T05:47:49.548Z,1028.61
2017-07-17T05:48:49.563Z,1029.58
2017-07-17T05:49:49.573Z,1029.27
2017-07-17T05:50:49.585Z,1029.03
2017-07-17T05:51:49.844Z,1030.08
2017-07-17T05:52:49.603Z,1028.69
2017-07-17T05:53:49.611Z,1029.19
2017-07-17T05:54:49.624Z,1029.05
2017-07-17T05:55:49.671Z,1029.33
2017-07-17T05:56:49.949Z,1030.29
2017-07-17T05:57:49.654Z,1029.11
2017-07-17T05:58:49.669Z,1028.68
2017-07-17T05:59:49.676Z,1029.64
2017-07-17T06:00:49.681Z,1028.35
2017-07-17T06:01:49.946Z,1027.8
2017-07-17T06:02:49.703Z,1028.34
2017-07-17T06:03:49.710Z,1028.86
2017-07-17T06:04:49.720Z,1029.39
2017-07-17T06:05:49.734Z,1029.87
2017-07-17T06:06:50.044Z,1030.31
2017-07-17T06:07:49.759Z,1030.73
2017-07-17T06:08:49.776Z,1031.2
2017-07-17T06:09:49.770Z,1030.04
2017-07-17T06:10:49.782Z,1029.69
2017-07-17T06:11:50.039Z,1029.97
2017-07-17T06:12:49.802Z,1029.36
2017-07-17T06:13:49.811Z,1027.76
2017-07-17T06:14:49.819Z,1028.63
2017-07-17T06:15:49.829Z,1029.1
2017-07-17T06:16:50.088Z,1029.24
2017-07-17T06:17:49.849Z,1028.94
2017-07-17T06:18:49.859Z,1030.7
2017-07-17T06:19:49.869Z,1029.87
2017-07-17T06:20:49.881Z,1029.2
2017-07-17T06:21:49.886Z,1029.05
2017-07-17T06:22:49.897Z,1028.71
2017-07-17T06:23:49.907Z,1028.29
2017-07-17T06:24:49.915Z,1027.69
2017-07-17T06:25:49.926Z,1027.89
2017-07-17T06:26:49.940Z,1027.6
2017-07-17T06:27:49.948Z,1027.36
2017-07-17T06:28:49.962Z,1027.34
2017-07-17T06:29:49.971Z,1027.23
2017-07-17T06:30:49.981Z,1027.03
2017-07-17T06:31:49.993Z,1026.75
2017-07-17T06:32:50.010Z,1026.72
2017-07-17T06:33:50.018Z,1026.84
2017-07-17T06:34:50.034Z,1026.83
2017-07-17T06:35:50.040Z,1027.37
2017-07-17T06:36:50.054Z,1027.19
2017-07-17T06:37:50.068Z,1027.49
2017-07-17T06:38:50.085Z,1027.2
2017-07-17T06:39:50.097Z,1027.6
2017-07-17T06:40:50.110Z,1028.47
2017-07-17T06:41:50.121Z,1027.88
2017-07-17T06:42:50.137Z,1027.46
2017-07-17T06:43:50.148Z,1027.13
2017-07-17T06:44:50.164Z,1028.8
2017-07-17T06:45:50.174Z,1028.55
2017-07-17T06:46:50.189Z,1029.22
2017-07-17T06:47:50.202Z,1029.71
2017-07-17T06:48:50.216Z,1028.75
2017-07-17T06:49:50.230Z,1028.37
2017-07-17T06:50:50.240Z,1027.75
2017-07-17T06:51:50.249Z,1027.67
2017-07-17T06:52:50.265Z,1027.1
2017-07-17T06:53:50.279Z,1026.51
2017-07-17T06:54:50.291Z,1026.48
2017-07-17T06:55:50.303Z,1026.38
2017-07-17T06:56:50.316Z,1027.28
2017-07-17T06:57:50.329Z,1027.88
2017-07-17T06:58:50.345Z,1028.46
2017-07-17T06:59:50.356Z,1028.93
2017-07-17T07:00:50.374Z,1029.53
2017-07-17T07:01:50.386Z,1029.95
2017-07-17T07:02:50.395Z,1030.31
2017-07-17T07:03:50.407Z,1030.54
2017-07-17T07:04:50.422Z,1031.63
2017-07-17T07:05:50.428Z,1029.95
2017-07-17T07:06:50.447Z,1029.15
2017-07-17T07:07:50.456Z,1028.31
2017-07-17T07:08:50.469Z,1027.64
2017-07-17T07:09:50.476Z,1027.37
2017-07-17T07:10:50.487Z,1026.68
2017-07-17T07:11:50.503Z,1026.53
2017-07-17T07:12:50.514Z,1025.83
2017-07-17T07:13:50.525Z,1026.07
2017-07-17T07:14:50.541Z,1026.58
2017-07-17T07:15:50.552Z,1026.96
2017-07-17T07:16:50.571Z,1026.9
2017-07-17T07:17:50.582Z,1027.63
2017-07-17T07:18:50.595Z,1028.4
2017-07-17T07:19:50.607Z,1029
2017-07-17T07:20:50.621Z,1030.17
2017-07-17T07:21:50.629Z,1029.24
2017-07-17T07:22:50.648Z,1028.46
2017-07-17T07:23:50.658Z,1028.02
2017-07-17T07:24:50.672Z,1027.1
2017-07-17T07:25:50.680Z,1026.7
2017-07-17T07:26:50.696Z,1027.11
2017-07-17T07:27:50.965Z,1027.06
2017-07-17T07:28:50.725Z,1026.71
2017-07-17T07:29:50.736Z,1026.08
2017-07-17T07:30:50.750Z,1025.38
2017-07-17T07:31:50.767Z,1026.25
2017-07-17T07:32:51.124Z,1027.29
2017-07-17T07:33:50.790Z,1028.06
2017-07-17T07:34:50.806Z,1028.56
2017-07-17T07:35:50.821Z,1028.99
2017-07-17T07:36:50.829Z,1029.58
2017-07-17T07:37:51.148Z,1030.07
2017-07-17T07:38:50.857Z,1030.45
2017-07-17T07:39:50.869Z,1030.23
2017-07-17T07:40:50.883Z,1029.89
2017-07-17T07:41:50.893Z,1029.65
2017-07-17T07:42:50.907Z,1030.31
2017-07-17T07:43:50.918Z,1029.21
2017-07-17T07:44:50.930Z,1027.83
2017-07-17T07:45:50.944Z,1028.17
2017-07-17T07:46:50.952Z,1027.08
2017-07-17T07:47:50.964Z,1027.7
2017-07-17T07:48:50.977Z,1028.5
2017-07-17T07:49:50.992Z,1027.06
2017-07-17T07:50:51.001Z,1027.51
2017-07-17T07:51:51.017Z,1028.14
2017-07-17T07:52:51.024Z,1027.06
2017-07-17T07:53:51.041Z,1027.84
2017-07-17T07:54:51.053Z,1028.67
2017-07-17T07:55:51.095Z,1029.31
2017-07-17T07:56:51.078Z,1029.93
2017-07-17T07:57:51.092Z,1030.46
2017-07-17T07:58:51.099Z,1030.77
2017-07-17T07:59:51.110Z,1029.29
2017-07-17T08:00:51.121Z,1028.54
2017-07-17T08:01:51.135Z,1027.82
2017-07-17T08:02:51.150Z,1027.19
2017-07-17T08:03:51.160Z,1027.93
2017-07-17T08:04:51.172Z,1028
2017-07-17T08:05:51.186Z,1028.03
2017-07-17T08:06:51.192Z,1028.39
2017-07-17T08:07:51.208Z,1029.06
2017-07-17T08:08:51.218Z,1029.58
2017-07-17T08:09:51.231Z,1028.3
2017-07-17T08:10:51.243Z,1029.18
2017-07-17T08:11:51.255Z,1028.73
2017-07-17T08:12:51.264Z,1027.84
2017-07-17T08:13:51.279Z,1027.52
2017-07-17T08:14:51.292Z,1027.21
2017-07-17T08:15:51.303Z,1027.67
2017-07-17T08:16:51.316Z,1027.91
2017-07-17T08:17:51.329Z,1028.54
2017-07-17T08:18:51.338Z,1028.37
2017-07-17T08:19:51.355Z,1028.65
2017-07-17T08:20:51.363Z,1028.2
2017-07-17T08:21:51.380Z,1027.92
2017-07-17T08:22:51.392Z,1027.88
2017-07-17T08:23:51.406Z,1026.97
2017-07-17T08:24:51.415Z,1026.25
2017-07-17T08:25:51.431Z,1025.71
2017-07-17T08:26:51.441Z,1025.51
2017-07-17T08:27:51.453Z,1025.49
2017-07-17T08:28:51.467Z,1025.29
2017-07-17T08:29:51.486Z,1026.31
2017-07-17T08:30:51.497Z,1027.22
2017-07-17T08:31:51.514Z,1028.05
2017-07-17T08:32:51.528Z,1027.94
2017-07-17T08:33:51.541Z,1027.12
2017-07-17T08:34:51.552Z,1026.89
2017-07-17T08:35:51.569Z,1026.66
2017-07-17T08:36:51.578Z,1026.42
2017-07-17T08:37:51.598Z,1026.11
2017-07-17T08:38:51.607Z,1026.07
2017-07-17T08:39:51.627Z,1026.16
2017-07-17T08:40:51.636Z,1026.23
2017-07-17T08:41:51.656Z,1026.23
2017-07-17T08:42:51.668Z,1026.16
2017-07-17T08:43:51.683Z,1026.32
2017-07-17T08:44:51.696Z,1026.38
2017-07-17T08:45:51.715Z,1027.82
2017-07-17T08:46:51.728Z,1029.03
2017-07-17T08:47:51.739Z,1030.04
2017-07-17T08:48:51.755Z,1029.18
2017-07-17T08:49:51.765Z,1028.57
2017-07-17T08:50:51.784Z,1028.02
2017-07-17T08:51:51.797Z,1027.63
2017-07-17T08:52:51.810Z,1027.18
2017-07-17T08:53:51.820Z,1026.89
2017-07-17T08:54:51.835Z,1026.95
2017-07-17T08:55:51.847Z,1027.67
2017-07-17T08:56:51.857Z,1028.63
2017-07-17T08:57:51.872Z,1029.25
2017-07-17T08:58:51.884Z,1029.82
2017-07-17T08:59:51.900Z,1030.23
2017-07-17T09:00:51.911Z,1030.58
2017-07-17T09:01:51.924Z,1030.86
2017-07-17T09:02:51.936Z,1031.08
2017-07-17T09:03:51.946Z,1031.21
2017-07-17T09:04:51.956Z,1031.36
2017-07-17T09:05:51.968Z,1031.47
2017-07-17T09:06:51.980Z,1031.63
2017-07-17T09:07:51.988Z,1031.91
2017-07-17T09:08:51.999Z,1031.97
2017-07-17T09:09:52.010Z,1032.1
2017-07-17T09:10:52.024Z,1032.13
2017-07-17T09:11:52.031Z,1032.21
2017-07-17T09:12:52.042Z,1032.32
2017-07-17T09:13:52.046Z,1032.49
2017-07-17T09:14:52.059Z,1032.59
2017-07-17T09:15:52.065Z,1032.6
2017-07-17T09:16:52.124Z,1032.66
2017-07-17T09:17:52.083Z,1032.73
2017-07-17T09:18:52.390Z,1032.92
2017-07-17T09:19:52.102Z,1033.1
2017-07-17T09:20:52.110Z,1033.3
2017-07-17T09:21:52.115Z,1033.45
2017-07-17T09:22:52.120Z,1033.57
2017-07-17T09:23:52.478Z,1033.65
2017-07-17T09:24:52.138Z,1033.7
2017-07-17T09:25:52.141Z,1033.74
2017-07-17T09:26:52.150Z,1033.78
2017-07-17T09:27:52.154Z,1033.89
2017-07-17T09:28:52.466Z,1033.98
2017-07-17T09:29:52.165Z,1034.07
2017-07-17T09:30:52.175Z,1034.05
2017-07-17T09:31:52.182Z,1034.01
2017-07-17T09:32:52.186Z,1033.87
2017-07-17T09:33:52.441Z,1033.78
2017-07-17T09:34:52.194Z,1033.77
2017-07-17T09:35:52.204Z,1033.69
2017-07-17T09:36:52.210Z,1033.68
2017-07-17T09:37:52.215Z,1033.64
2017-07-17T09:38:52.469Z,1033.72
2017-07-17T09:39:52.224Z,1033.73
2017-07-17T09:40:52.225Z,1033.87
2017-07-17T09:41:52.238Z,1033.93
2017-07-17T09:42:52.235Z,1034.01
2017-07-17T09:43:52.494Z,1034.08
2017-07-17T09:44:52.243Z,1034.07
2017-07-17T09:45:52.252Z,1033.98
2017-07-17T09:46:52.253Z,1033.98
2017-07-17T09:47:52.261Z,1033.97
2017-07-17T09:48:52.516Z,1033.94
2017-07-17T09:49:52.271Z,1033.96
2017-07-17T09:50:52.274Z,1033.88
2017-07-17T09:51:52.280Z,1033.92
2017-07-17T09:52:52.282Z,1033.95
2017-07-17T09:53:52.638Z,1034.06
2017-07-17T09:54:52.292Z,1034.1
2017-07-17T09:55:52.297Z,1034.15
2017-07-17T09:56:52.296Z,1034.19
2017-07-17T09:57:52.307Z,1034.27
2017-07-17T09:58:52.555Z,1034.26
2017-07-17T09:59:52.311Z,1034.32
2017-07-17T10:00:52.314Z,1034.41
2017-07-17T10:01:52.317Z,1034.49
2017-07-17T10:02:52.319Z,1034.52
2017-07-17T10:03:52.575Z,1034.6
2017-07-17T10:04:52.326Z,1034.7
2017-07-17T10:05:52.332Z,1034.75
2017-07-17T10:06:52.333Z,1034.74
2017-07-17T10:07:52.336Z,1034.74
2017-07-17T10:08:52.641Z,1034.76
2017-07-17T10:09:52.342Z,1034.75
2017-07-17T10:10:52.350Z,1034.83
2017-07-17T10:11:52.349Z,1034.97
2017-07-17T10:12:52.352Z,1034.94
2017-07-17T10:13:52.610Z,1034.94
2017-07-17T10:14:52.357Z,1034.84
2017-07-17T10:15:52.364Z,1034.78
2017-07-17T10:16:52.363Z,1034.71
2017-07-17T10:17:52.371Z,1034.58
2017-07-17T10:18:52.718Z,1034.62
2017-07-17T10:19:52.371Z,1034.55
2017-07-17T10:20:52.375Z,1034.51
2017-07-17T10:21:52.379Z,1034.47
2017-07-17T10:22:52.381Z,1034.44
2017-07-17T10:23:52.630Z,1034.47
2017-07-17T10:24:52.383Z,1034.46
2017-07-17T10:25:52.385Z,1034.55
2017-07-17T10:26:52.389Z,1034.61
2017-07-17T10:27:52.392Z,1034.69
2017-07-17T10:28:52.646Z,1034.71
2017-07-17T10:29:52.394Z,1034.68
2017-07-17T10:30:52.405Z,1034.67
2017-07-17T10:31:52.402Z,1034.72
2017-07-17T10:32:52.407Z,1034.61
2017-07-17T10:33:52.656Z,1034.62
2017-07-17T10:34:52.410Z,1034.75
2017-07-17T10:35:52.413Z,1034.86
2017-07-17T10:36:52.414Z,1034.9
2017-07-17T10:37:52.413Z,1034.89
2017-07-17T10:38:52.670Z,1034.9
2017-07-17T10:39:52.418Z,1034.9
2017-07-17T10:40:52.425Z,1034.87
2017-07-17T10:41:52.426Z,1034.87
2017-07-17T10:42:52.427Z,1034.83
2017-07-17T10:43:52.677Z,1034.89
2017-07-17T10:44:52.432Z,1034.92
2017-07-17T10:45:52.433Z,1034.93
2017-07-17T10:46:52.438Z,1034.96
2017-07-17T10:47:52.438Z,1034.96
2017-07-17T10:48:52.693Z,1035.01
2017-07-17T10:49:52.443Z,1035.08
2017-07-17T10:50:52.444Z,1034.98
2017-07-17T10:51:52.449Z,1035.07
2017-07-17T10:52:52.452Z,1035.04
2017-07-17T10:53:52.749Z,1034.9
2017-07-17T10:54:52.449Z,1034.89
2017-07-17T10:55:52.454Z,1034.86
2017-07-17T10:56:52.458Z,1034.58
2017-07-17T10:57:52.458Z,1034.25
2017-07-17T10:58:52.812Z,1034.11
2017-07-17T10:59:52.466Z,1033.99
2017-07-17T11:00:52.467Z,1033.91
2017-07-17T11:01:52.470Z,1033.67
2017-07-17T11:02:52.472Z,1033.63
2017-07-17T11:03:52.725Z,1033.56
2017-07-17T11:04:52.477Z,1033.61
2017-07-17T11:05:52.478Z,1033.73
2017-07-17T11:06:52.484Z,1033.86
2017-07-17T11:07:52.485Z,1033.98
2017-07-17T11:08:52.739Z,1034.07
2017-07-17T11:09:52.491Z,1034.18
2017-07-17T11:10:52.489Z,1034.36
2017-07-17T11:11:52.500Z,1034.41
2017-07-17T11:12:52.499Z,1034.54
2017-07-17T11:13:52.852Z,1034.56
2017-07-17T11:14:52.502Z,1034.6
2017-07-17T11:15:52.506Z,1034.58
2017-07-17T11:16:52.507Z,1034.56
2017-07-17T11:17:52.513Z,1034.57
2017-07-17T11:18:52.815Z,1034.49
2017-07-17T11:19:52.520Z,1034.53
2017-07-17T11:20:52.519Z,1034.46
2017-07-17T11:21:52.524Z,1034.36
2017-07-17T11:22:52.524Z,1034.27
2017-07-17T11:23:52.776Z,1034.13
2017-07-17T11:24:52.529Z,1034.06
2017-07-17T11:25:52.534Z,1033.88
2017-07-17T11:26:52.537Z,1033.9
2017-07-17T11:27:52.537Z,1033.98
2017-07-17T11:28:52.840Z,1033.89
2017-07-17T11:29:52.547Z,1033.81
2017-07-17T11:30:52.543Z,1033.75
2017-07-17T11:31:52.549Z,1033.73
2017-07-17T11:32:52.550Z,1033.68
2017-07-17T11:33:52.857Z,1033.53
2017-07-17T11:34:52.560Z,1033.46
2017-07-17T11:35:52.563Z,1033.45
2017-07-17T11:36:52.565Z,1033.42
2017-07-17T11:37:52.571Z,1033.49
2017-07-17T11:38:52.825Z,1033.55
2017-07-17T11:39:52.575Z,1033.46
2017-07-17T11:40:52.580Z,1033.23
2017-07-17T11:41:52.585Z,1032.98
2017-07-17T11:42:52.584Z,1032.96
2017-07-17T11:43:52.891Z,1032.83
2017-07-17T11:44:52.595Z,1032.68
2017-07-17T11:45:52.598Z,1032.57
2017-07-17T11:57:04.757Z,1031.95
2017-07-17T11:59:04.769Z,1031.88
2017-07-17T12:00:05.075Z,1031.96
2017-07-17T12:01:04.785Z,1032.06
2017-07-17T12:02:04.788Z,1032.12
2017-07-17T12:03:04.791Z,1032.3
2017-07-17T12:04:04.797Z,1032.5
2017-07-17T12:06:04.811Z,1032.73
2017-07-17T12:07:04.833Z,1032.75
2017-07-17T12:08:04.824Z,1032.82
2017-07-17T12:09:04.832Z,1032.79
2017-07-17T12:10:05.154Z,1032.9
2017-07-17T12:11:04.843Z,1032.94
2017-07-17T12:12:04.844Z,1032.89
2017-07-17T12:13:04.852Z,1032.82
2017-07-17T12:14:04.857Z,1032.8
2017-07-17T12:15:04.864Z,1032.63
2017-07-17T12:16:04.865Z,1032.56
2017-07-17T12:17:04.870Z,1032.41
2017-07-17T12:18:04.880Z,1032.32
2017-07-17T12:19:04.884Z,1032.28
2017-07-17T12:20:04.894Z,1032.28
2017-07-17T12:21:04.898Z,1032.24